Eynon, Pennsylvania
Current Conditions -  °F | °C
As of 10:35 PM on Saturday 24 Jan 2015 (Local Time) from KAVP Reporting Station
Overcast Overcast  
Wind Chill: 26°   Ceiling: 2900
Heat Index: 32°   Visibility: 10mi
Dew Point: 24°   Wind: 6mph
Humidity: 73%   Direction: 290°WNW
Pressure: 29.48"   Gusts: NA
Location:  41.5069°N, 75.5327°W
Report Text: KAVP 250335Z 29005KT 10SM OVC029 00/M04 A2948 RMK AO2 T00001044
Loading
Personal Weather Stations






























Interactive Weather Map New forecast layout! Learn more

10-Day Weather Forecast

Advertisements
Track Severe Weather on mobile